Clackamas, Oregon
Current Conditions -  °F | °C
As of 8:53 PM on Friday 24 Oct 2014 (Local Time) from KTTD Reporting Station
Clear Clear  
Wind Chill: 55°   Ceiling: Unl
Heat Index: 55°   Visibility: 10mi
Dew Point: 49°   Wind: 15mph
Humidity: 80%   Direction: 90°E
Pressure: 29.75"   Gusts: NA
Location:  45.41°N, 122.55°W
Report Text: KTTD 250353Z 09013KT 10SM CLR 13/09 A2975 RMK AO2 SLP074 T01280094
Loading
Personal Weather Stations






























Interactive Weather Map
Tropical Storm Tracking
New forecast layout! Learn more

10-Day Weather Forecast

Advertisements
Track Severe Weather on mobile